sensor_id;sensor_type;location;lat;lon;timestamp;pressure;altitude;pressure_sealevel;temperature;humidity
21109;BME280;10712;52.944;9.098;2023-01-28T00:01:54;102853.28;;;9.47;45.10
21109;BME280;10712;52.944;9.098;2023-01-28T00:04:20;102855.84;;;9.52;45.02
21109;BME280;10712;52.944;9.098;2023-01-28T00:06:45;102857.50;;;9.57;44.87
21109;BME280;10712;52.944;9.098;2023-01-28T00:09:11;102855.78;;;9.55;44.77
21109;BME280;10712;52.944;9.098;2023-01-28T00:11:37;102859.28;;;9.57;44.83
21109;BME280;10712;52.944;9.098;2023-01-28T00:14:03;102849.53;;;9.57;44.84
21109;BME280;10712;52.944;9.098;2023-01-28T00:16:29;102855.78;;;9.55;44.83
21109;BME280;10712;52.944;9.098;2023-01-28T00:18:55;102854.97;;;9.51;44.78
21109;BME280;10712;52.944;9.098;2023-01-28T00:21:21;102864.78;;;9.47;44.75
21109;BME280;10712;52.944;9.098;2023-01-28T00:23:52;102859.47;;;9.47;44.78
21109;BME280;10712;52.944;9.098;2023-01-28T00:26:20;102850.56;;;9.48;44.91
21109;BME280;10712;52.944;9.098;2023-01-28T00:28:47;102848.88;;;9.46;45.03
21109;BME280;10712;52.944;9.098;2023-01-28T00:31:19;102847.09;;;9.46;45.05
21109;BME280;10712;52.944;9.098;2023-01-28T00:33:48;102835.50;;;9.49;45.08
21109;BME280;10712;52.944;9.098;2023-01-28T00:36:17;102844.28;;;9.54;45.09
21109;BME280;10712;52.944;9.098;2023-01-28T00:38:48;102839.88;;;9.53;45.12
21109;BME280;10712;52.944;9.098;2023-01-28T00:41:16;102840.75;;;9.54;45.38
21109;BME280;10712;52.944;9.098;2023-01-28T00:43:43;102838.97;;;9.54;45.18
21109;BME280;10712;52.944;9.098;2023-01-28T00:46:11;102832.84;;;9.49;45.31
21109;BME280;10712;52.944;9.098;2023-01-28T00:48:39;102839.13;;;9.45;45.26
21109;BME280;10712;52.944;9.098;2023-01-28T00:51:06;102839.22;;;9.40;45.25
21109;BME280;10712;52.944;9.098;2023-01-28T00:53:33;102837.34;;;9.47;45.12
21109;BME280;10712;52.944;9.098;2023-01-28T00:56:03;102838.25;;;9.44;45.28
21109;BME280;10712;52.944;9.098;2023-01-28T00:58:32;102843.59;;;9.44;45.30
21109;BME280;10712;52.944;9.098;2023-01-28T01:01:11;102839.13;;;9.46;45.19
21109;BME280;10712;52.944;9.098;2023-01-28T01:03:37;102845.25;;;9.48;45.39
21109;BME280;10712;52.944;9.098;2023-01-28T01:06:04;102852.28;;;9.53;45.34
21109;BME280;10712;52.944;9.098;2023-01-28T01:08:31;102853.19;;;9.52;45.41
21109;BME280;10712;52.944;9.098;2023-01-28T01:11:01;102848.78;;;9.51;45.41
21109;BME280;10712;52.944;9.098;2023-01-28T01:13:28;102855.84;;;9.52;45.42
21109;BME280;10712;52.944;9.098;2023-01-28T01:16:23;102854.09;;;9.51;45.46
21109;BME280;10712;52.944;9.098;2023-01-28T01:18:53;102844.91;;;9.67;45.03
21109;BME280;10712;52.944;9.098;2023-01-28T01:21:23;102857.47;;;9.59;44.87
21109;BME280;10712;52.944;9.098;2023-01-28T01:23:51;102851.38;;;9.54;44.71
21109;BME280;10712;52.944;9.098;2023-01-28T01:26:17;102844.22;;;9.56;44.79
21109;BME280;10712;52.944;9.098;2023-01-28T01:28:43;102856.72;;;9.54;44.73
21109;BME280;10712;52.944;9.098;2023-01-28T01:31:18;102849.69;;;9.49;44.43
21109;BME280;10712;52.944;9.098;2023-01-28T01:33:46;102857.75;;;9.46;44.71
21109;BME280;10712;52.944;9.098;2023-01-28T01:36:15;102848.03;;;9.42;44.74
21109;BME280;10712;52.944;9.098;2023-01-28T01:38:42;102853.38;;;9.41;44.75
21109;BME280;10712;52.944;9.098;2023-01-28T01:41:32;102852.50;;;9.40;44.97
21109;BME280;10712;52.944;9.098;2023-01-28T01:44:01;102858.72;;;9.41;44.79
21109;BME280;10712;52.944;9.098;2023-01-28T01:46:48;102864.09;;;9.38;44.95
21109;BME280;10712;52.944;9.098;2023-01-28T01:49:22;102868.59;;;9.34;44.96
21109;BME280;10712;52.944;9.098;2023-01-28T01:51:59;102858.06;;;9.30;45.14
21109;BME280;10712;52.944;9.098;2023-01-28T01:54:30;102866.91;;;9.30;45.14
21109;BME280;10712;52.944;9.098;2023-01-28T01:56:58;102862.47;;;9.31;45.15
21109;BME280;10712;52.944;9.098;2023-01-28T01:59:30;102854.41;;;9.34;45.41
21109;BME280;10712;52.944;9.098;2023-01-28T02:02:03;102854.34;;;9.38;45.38
21109;BME280;10712;52.944;9.098;2023-01-28T02:04:31;102856.03;;;9.42;45.31
21109;BME280;10712;52.944;9.098;2023-01-28T02:07:00;102851.59;;;9.43;45.26
21109;BME280;10712;52.944;9.098;2023-01-28T02:09:32;102840.06;;;9.42;45.39
21109;BME280;10712;52.944;9.098;2023-01-28T02:12:08;102848.03;;;9.44;45.34
21109;BME280;10712;52.944;9.098;2023-01-28T02:14:40;102843.59;;;9.44;45.30
21109;BME280;10712;52.944;9.098;2023-01-28T02:17:08;102834.72;;;9.44;45.28
21109;BME280;10712;52.944;9.098;2023-01-28T02:19:43;102852.50;;;9.42;45.50
21109;BME280;10712;52.944;9.098;2023-01-28T02:28:36;102837.44;;;9.41;45.77
21109;BME280;10712;52.944;9.098;2023-01-28T02:32:26;102844.72;;;9.31;45.65
21109;BME280;10712;52.944;9.098;2023-01-28T02:35:10;102847.44;;;9.28;45.69
21109;BME280;10712;52.944;9.098;2023-01-28T02:37:30;102854.63;;;9.23;45.73
21109;BME280;10712;52.944;9.098;2023-01-28T02:40:09;102856.41;;;9.24;45.88
21109;BME280;10712;52.944;9.098;2023-01-28T02:42:38;102849.19;;;9.29;45.97
21109;BME280;10712;52.944;9.098;2023-01-28T02:45:25;102856.31;;;9.27;46.01
21109;BME280;10712;52.944;9.098;2023-01-28T02:48:13;102858.19;;;9.24;46.01
21109;BME280;10712;52.944;9.098;2023-01-28T02:51:11;102858.16;;;9.25;46.21
21109;BME280;10712;52.944;9.098;2023-01-28T02:54:00;102851.06;;;9.26;46.36
21109;BME280;10712;52.944;9.098;2023-01-28T02:56:59;102845.63;;;9.30;46.38
21109;BME280;10712;52.944;9.098;2023-01-28T02:59:39;102833.25;;;9.29;46.18
21109;BME280;10712;52.944;9.098;2023-01-28T03:04:47;102826.97;;;9.33;46.14
21109;BME280;10712;52.944;9.098;2023-01-28T03:07:18;102829.38;;;9.45;45.77
21109;BME280;10712;52.944;9.098;2023-01-28T03:09:47;102827.63;;;9.44;45.68
21109;BME280;10712;52.944;9.098;2023-01-28T03:12:25;102832.22;;;9.35;45.51
21109;BME280;10712;52.944;9.098;2023-01-28T03:15:18;102842.06;;;9.31;45.62
21109;BME280;10712;52.944;9.098;2023-01-28T03:18:24;102849.31;;;9.23;45.74
21109;BME280;10712;52.944;9.098;2023-01-28T03:21:20;102845.81;;;9.21;46.02
21109;BME280;10712;52.944;9.098;2023-01-28T03:24:12;102851.94;;;9.25;46.31
21109;BME280;10712;52.944;9.098;2023-01-28T03:27:25;102851.88;;;9.28;46.17
21109;BME280;10712;52.944;9.098;2023-01-28T03:30:24;102849.16;;;9.31;46.01
21109;BME280;10712;52.944;9.098;2023-01-28T03:33:19;102844.63;;;9.36;45.98
21109;BME280;10712;52.944;9.098;2023-01-28T03:36:05;102847.28;;;9.37;45.89
21109;BME280;10712;52.944;9.098;2023-01-28T03:38:51;102840.16;;;9.38;45.79
21109;BME280;10712;52.944;9.098;2023-01-28T03:41:23;102840.16;;;9.39;45.76
21109;BME280;10712;52.944;9.098;2023-01-28T03:43:52;102840.16;;;9.39;45.79
21109;BME280;10712;52.944;9.098;2023-01-28T03:46:18;102839.22;;;9.40;45.67
21109;BME280;10712;52.944;9.098;2023-01-28T03:48:44;102847.19;;;9.40;45.69
21109;BME280;10712;52.944;9.098;2023-01-28T03:51:13;102855.28;;;9.36;45.52
21109;BME280;10712;52.944;9.098;2023-01-28T03:53:39;102848.19;;;9.35;45.49
21109;BME280;10712;52.944;9.098;2023-01-28T03:56:06;102853.50;;;9.35;45.49
21109;BME280;10712;52.944;9.098;2023-01-28T03:58:32;102860.63;;;9.34;45.35
21109;BME280;10712;52.944;9.098;2023-01-28T04:01:12;102865.22;;;9.26;44.89
21109;BME280;10712;52.944;9.098;2023-01-28T04:03:38;102866.97;;;9.27;45.24
21109;BME280;10712;52.944;9.098;2023-01-28T04:06:09;102863.41;;;9.28;45.23
21109;BME280;10712;52.944;9.098;2023-01-28T04:09:04;102866.88;;;9.33;45.17
21109;BME280;10712;52.944;9.098;2023-01-28T04:11:30;102859.78;;;9.32;45.10
21109;BME280;10712;52.944;9.098;2023-01-28T04:13:59;102863.34;;;9.31;44.72
21109;BME280;10712;52.944;9.098;2023-01-28T04:16:29;102866.97;;;9.27;44.53
21109;BME280;10712;52.944;9.098;2023-01-28T04:18:55;102867.91;;;9.26;44.53
21109;BME280;10712;52.944;9.098;2023-01-28T04:21:22;102861.63;;;9.27;44.51
21109;BME280;10712;52.944;9.098;2023-01-28T04:23:48;102858.03;;;9.31;44.46
21109;BME280;10712;52.944;9.098;2023-01-28T04:26:14;102851.81;;;9.32;44.44
21109;BME280;10712;52.944;9.098;2023-01-28T04:28:40;102858.03;;;9.31;44.56
21109;BME280;10712;52.944;9.098;2023-01-28T04:31:06;102863.34;;;9.31;44.44
21109;BME280;10712;52.944;9.098;2023-01-28T04:33:41;102861.63;;;9.27;44.45
21109;BME280;10712;52.944;9.098;2023-01-28T04:36:18;102859.06;;;9.24;44.45
21109;BME280;10712;52.944;9.098;2023-01-28T04:38:59;102854.59;;;9.26;44.38
21109;BME280;10712;52.944;9.098;2023-01-28T04:41:25;102856.28;;;9.30;44.54
21109;BME280;10712;52.944;9.098;2023-01-28T04:43:51;102859.78;;;9.32;44.40
21109;BME280;10712;52.944;9.098;2023-01-28T04:46:33;102857.94;;;9.36;44.53
21109;BME280;10712;52.944;9.098;2023-01-28T04:49:09;102863.28;;;9.34;44.56
21109;BME280;10712;52.944;9.098;2023-01-28T04:52:05;102851.88;;;9.28;44.42
21109;BME280;10712;52.944;9.098;2023-01-28T04:54:50;102862.50;;;9.28;44.69
21109;BME280;10712;52.944;9.098;2023-01-28T04:57:16;102856.28;;;9.30;44.62
21109;BME280;10712;52.944;9.098;2023-01-28T04:59:42;102857.06;;;9.34;44.84
21109;BME280;10712;52.944;9.098;2023-01-28T05:02:08;102859.78;;;9.32;44.67
21109;BME280;10712;52.944;9.098;2023-01-28T05:04:34;102855.34;;;9.33;44.87
21109;BME280;10712;52.944;9.098;2023-01-28T05:07:00;102844.63;;;9.36;44.78
21109;BME280;10712;52.944;9.098;2023-01-28T05:09:30;102842.06;;;9.31;44.95
21109;BME280;10712;52.944;9.098;2023-01-28T05:11:56;102846.50;;;9.32;44.81
21109;BME280;10712;52.944;9.098;2023-01-28T05:14:22;102843.88;;;9.29;45.13
21109;BME280;10712;52.944;9.098;2023-01-28T05:16:57;102851.06;;;9.24;44.78
21109;BME280;10712;52.944;9.098;2023-01-28T05:19:23;102852.09;;;9.17;44.87
21109;BME280;10712;52.944;9.098;2023-01-28T05:21:49;102854.00;;;9.11;45.02
21109;BME280;10712;52.944;9.098;2023-01-28T05:24:47;102847.78;;;9.10;45.20
21109;BME280;10712;52.944;9.098;2023-01-28T05:27:13;102851.31;;;9.12;45.12
21109;BME280;10712;52.944;9.098;2023-01-28T05:29:39;102850.34;;;9.15;45.26
21109;BME280;10712;52.944;9.098;2023-01-28T05:32:04;102852.09;;;9.17;45.12
21109;BME280;10712;52.944;9.098;2023-01-28T05:34:31;102848.47;;;9.20;45.15
21109;BME280;10712;52.944;9.098;2023-01-28T05:37:00;102837.81;;;9.21;45.14
21109;BME280;10712;52.944;9.098;2023-01-28T05:39:31;102829.03;;;9.19;45.00
21109;BME280;10712;52.944;9.098;2023-01-28T05:41:57;102836.13;;;9.19;44.93
21109;BME280;10712;52.944;9.098;2023-01-28T05:44:23;102836.13;;;9.19;45.08
21109;BME280;10712;52.944;9.098;2023-01-28T05:47:07;102838.03;;;9.12;45.04
21109;BME280;10712;52.944;9.098;2023-01-28T05:49:46;102819.44;;;9.09;45.07
21109;BME280;10712;52.944;9.098;2023-01-28T05:52:31;102822.97;;;9.11;45.23
21109;BME280;10712;52.944;9.098;2023-01-28T05:54:57;102815.88;;;9.10;45.26
21109;BME280;10712;52.944;9.098;2023-01-28T05:57:24;102839.91;;;9.05;45.22
21109;BME280;10712;52.944;9.098;2023-01-28T05:59:50;102837.31;;;9.01;45.24
21109;BME280;10712;52.944;9.098;2023-01-28T06:02:16;102835.56;;;9.00;45.21
21109;BME280;10712;52.944;9.098;2023-01-28T06:04:42;102840.88;;;9.00;45.41
21109;BME280;10712;52.944;9.098;2023-01-28T06:07:08;102840.88;;;9.00;45.34
21109;BME280;10712;52.944;9.098;2023-01-28T06:09:36;102841.00;;;8.94;45.22
21109;BME280;10712;52.944;9.098;2023-01-28T06:12:03;102856.84;;;9.00;45.15
21109;BME280;10712;52.944;9.098;2023-01-28T06:14:34;102846.19;;;9.00;44.98
21109;BME280;10712;52.944;9.098;2023-01-28T06:17:15;102839.94;;;9.04;44.82
21109;BME280;10712;52.944;9.098;2023-01-28T06:19:58;102841.66;;;9.06;44.63
21109;BME280;10712;52.944;9.098;2023-01-28T06:22:24;102840.72;;;9.09;44.76
21109;BME280;10712;52.944;9.098;2023-01-28T06:24:50;102847.03;;;9.03;44.56
21109;BME280;10712;52.944;9.098;2023-01-28T06:27:16;102845.63;;;8.84;44.71
21109;BME280;10712;52.944;9.098;2023-01-28T06:29:42;102839.47;;;8.81;44.83
21109;BME280;10712;52.944;9.098;2023-01-28T06:32:08;102835.03;;;8.80;44.88
21109;BME280;10712;52.944;9.098;2023-01-28T06:34:33;102837.78;;;8.77;44.91
21109;BME280;10712;52.944;9.098;2023-01-28T06:36:59;102841.25;;;8.79;44.78
21109;BME280;10712;52.944;9.098;2023-01-28T06:39:25;102834.25;;;8.75;44.87
21109;BME280;10712;52.944;9.098;2023-01-28T06:41:52;102844.88;;;8.76;44.84
21109;BME280;10712;52.944;9.098;2023-01-28T06:44:18;102836.13;;;8.69;44.76
21109;BME280;10712;52.944;9.098;2023-01-28T06:46:44;102843.22;;;8.67;44.87
21109;BME280;10712;52.944;9.098;2023-01-28T06:49:10;102839.59;;;8.72;44.90
21109;BME280;10712;52.944;9.098;2023-01-28T06:51:36;102828.97;;;8.72;44.88
21109;BME280;10712;52.944;9.098;2023-01-28T06:54:02;102828.97;;;8.72;44.88
21109;BME280;10712;52.944;9.098;2023-01-28T06:56:28;102838.84;;;8.65;44.88
21109;BME280;10712;52.944;9.098;2023-01-28T06:58:53;102844.34;;;8.54;44.95
21109;BME280;10712;52.944;9.098;2023-01-28T07:01:19;102838.16;;;8.52;44.79
21109;BME280;10712;52.944;9.098;2023-01-28T07:03:45;102841.69;;;8.54;44.99
21109;BME280;10712;52.944;9.098;2023-01-28T07:06:11;102831.03;;;8.57;44.94
21109;BME280;10712;52.944;9.098;2023-01-28T07:08:36;102850.56;;;8.53;44.96
21109;BME280;10712;52.944;9.098;2023-01-28T07:11:03;102841.78;;;8.48;44.92
21109;BME280;10712;52.944;9.098;2023-01-28T07:13:29;102840.00;;;8.50;44.85
21109;BME280;10712;52.944;9.098;2023-01-28T07:15:55;102840.00;;;8.50;45.02
21109;BME280;10712;52.944;9.098;2023-01-28T07:18:21;102848.88;;;8.49;44.89
21109;BME280;10712;52.944;9.098;2023-01-28T07:20:47;102852.41;;;8.48;45.03
21109;BME280;10712;52.944;9.098;2023-01-28T07:23:13;102850.66;;;8.47;45.08
21109;BME280;10712;52.944;9.098;2023-01-28T07:25:38;102856.00;;;8.44;45.09
21109;BME280;10712;52.944;9.098;2023-01-28T07:28:04;102850.84;;;8.35;45.08
21109;BME280;10712;52.944;9.098;2023-01-28T07:30:31;102877.44;;;8.32;45.33
21109;BME280;10712;52.944;9.098;2023-01-28T07:32:59;102881.88;;;8.33;45.22
21109;BME280;10712;52.944;9.098;2023-01-28T07:35:26;102881.78;;;8.38;45.22
21109;BME280;10712;52.944;9.098;2023-01-28T07:37:58;102887.97;;;8.38;45.39
21109;BME280;10712;52.944;9.098;2023-01-28T07:40:25;102891.56;;;8.36;45.51
21109;BME280;10712;52.944;9.098;2023-01-28T07:42:52;102900.44;;;8.36;45.45
21109;BME280;10712;52.944;9.098;2023-01-28T07:45:22;102909.31;;;8.32;45.49
21109;BME280;10712;52.944;9.098;2023-01-28T07:48:00;102908.44;;;8.32;45.49
21109;BME280;10712;52.944;9.098;2023-01-28T07:50:29;102896.03;;;8.34;45.69
21109;BME280;10712;52.944;9.098;2023-01-28T07:52:57;102897.72;;;8.38;45.71
21109;BME280;10712;52.944;9.098;2023-01-28T07:55:24;102905.66;;;8.39;45.63
21109;BME280;10712;52.944;9.098;2023-01-28T07:57:56;102925.16;;;8.38;45.63
21109;BME280;10712;52.944;9.098;2023-01-28T08:00:24;102922.56;;;8.37;45.72
21109;BME280;10712;52.944;9.098;2023-01-28T08:02:56;102918.03;;;8.43;45.61
21109;BME280;10712;52.944;9.098;2023-01-28T08:05:23;102921.50;;;8.45;45.53
21109;BME280;10712;52.944;9.098;2023-01-28T08:07:49;102938.34;;;8.46;45.48
21109;BME280;10712;52.944;9.098;2023-01-28T08:10:17;102939.19;;;8.49;45.38
21109;BME280;10712;52.944;9.098;2023-01-28T08:12:57;102935.56;;;8.53;45.35
21109;BME280;10712;52.944;9.098;2023-01-28T08:15:24;102933.78;;;8.55;45.36
21109;BME280;10712;52.944;9.098;2023-01-28T08:17:54;102934.66;;;8.56;45.13
21109;BME280;10712;52.944;9.098;2023-01-28T08:20:21;102933.78;;;8.55;45.07
21109;BME280;10712;52.944;9.098;2023-01-28T08:22:47;102942.63;;;8.57;45.00
21109;BME280;10712;52.944;9.098;2023-01-28T08:25:13;102945.28;;;8.57;44.97
21109;BME280;10712;52.944;9.098;2023-01-28T08:27:39;102946.09;;;8.59;44.82
21109;BME280;10712;52.944;9.098;2023-01-28T08:30:05;102931.03;;;8.60;44.69
21109;BME280;10712;52.944;9.098;2023-01-28T08:32:32;102950.44;;;8.65;44.86
21109;BME280;10712;52.944;9.098;2023-01-28T08:35:00;102940.69;;;8.65;44.60
21109;BME280;10712;52.944;9.098;2023-01-28T08:37:26;102954.88;;;8.64;44.58
21109;BME280;10712;52.944;9.098;2023-01-28T08:39:52;102941.63;;;8.63;44.79
21109;BME280;10712;52.944;9.098;2023-01-28T08:42:18;102943.34;;;8.67;44.74
21109;BME280;10712;52.944;9.098;2023-01-28T08:44:44;102947.66;;;8.73;44.73
21109;BME280;10712;52.944;9.098;2023-01-28T08:47:10;102950.38;;;8.69;44.61
21109;BME280;10712;52.944;9.098;2023-01-28T08:49:36;102949.50;;;8.71;44.65
21109;BME280;10712;52.944;9.098;2023-01-28T08:52:01;102959.19;;;8.72;44.63
21109;BME280;10712;52.944;9.098;2023-01-28T08:54:27;102953.88;;;8.73;44.64
21109;BME280;10712;52.944;9.098;2023-01-28T08:56:53;102961.81;;;8.75;44.60
21109;BME280;10712;52.944;9.098;2023-01-28T08:59:19;102967.09;;;8.78;44.48
21109;BME280;10712;52.944;9.098;2023-01-28T09:01:44;102965.28;;;8.80;44.48
21109;BME280;10712;52.944;9.098;2023-01-28T09:04:10;102955.50;;;8.82;44.43
21109;BME280;10712;52.944;9.098;2023-01-28T09:06:36;102947.56;;;8.79;44.38
21109;BME280;10712;52.944;9.098;2023-01-28T09:09:02;102944.00;;;8.80;44.43
21109;BME280;10712;52.944;9.098;2023-01-28T09:11:28;102945.75;;;8.84;44.26
21109;BME280;10712;52.944;9.098;2023-01-28T09:13:56;102952.81;;;8.85;44.36
21109;BME280;10712;52.944;9.098;2023-01-28T09:16:22;102950.97;;;8.88;44.30
21109;BME280;10712;52.944;9.098;2023-01-28T09:18:48;102962.53;;;8.86;44.08
21109;BME280;10712;52.944;9.098;2023-01-28T09:21:16;102965.22;;;8.84;44.01
21109;BME280;10712;52.944;9.098;2023-01-28T09:23:42;102966.16;;;8.82;44.00
21109;BME280;10712;52.944;9.098;2023-01-28T09:26:08;102959.81;;;8.89;43.92
21109;BME280;10712;52.944;9.098;2023-01-28T09:28:34;102954.50;;;8.89;43.79
21109;BME280;10712;52.944;9.098;2023-01-28T09:31:09;102961.69;;;8.84;43.71
21109;BME280;10712;52.944;9.098;2023-01-28T09:33:37;102963.47;;;8.82;43.97
21109;BME280;10712;52.944;9.098;2023-01-28T09:36:07;102966.03;;;8.88;43.87
21109;BME280;10712;52.944;9.098;2023-01-28T09:38:34;102973.81;;;9.00;43.88
21109;BME280;10712;52.944;9.098;2023-01-28T09:41:10;102986.19;;;9.04;43.92
21109;BME280;10712;52.944;9.098;2023-01-28T09:43:59;102987.88;;;9.08;43.70
21109;BME280;10712;52.944;9.098;2023-01-28T09:46:35;102994.84;;;9.15;43.46
21109;BME280;10712;52.944;9.098;2023-01-28T09:51:55;102999.16;;;9.24;43.13
21109;BME280;10712;52.944;9.098;2023-01-28T09:54:43;103007.09;;;9.25;43.17
21109;BME280;10712;52.944;9.098;2023-01-28T09:57:23;103009.69;;;9.30;43.15
21109;BME280;10712;52.944;9.098;2023-01-28T09:59:49;103005.19;;;9.33;43.34
21109;BME280;10712;52.944;9.098;2023-01-28T10:03:10;102999.94;;;9.29;42.89
21109;BME280;10712;52.944;9.098;2023-01-28T10:06:45;103010.53;;;9.33;42.97
21109;BME280;10712;52.944;9.098;2023-01-28T10:12:12;103008.78;;;9.29;43.29
21109;BME280;10712;52.944;9.098;2023-01-28T10:17:42;102994.38;;;9.42;42.93
21109;BME280;10712;52.944;9.098;2023-01-28T10:22:51;102984.50;;;9.49;43.07
21109;BME280;10712;52.944;9.098;2023-01-28T10:25:22;102981.78;;;9.54;42.84
21109;BME280;10712;52.944;9.098;2023-01-28T10:27:50;102984.47;;;9.52;42.97
21109;BME280;10712;52.944;9.098;2023-01-28T10:30:30;102975.44;;;9.61;42.96
21109;BME280;10712;52.944;9.098;2023-01-28T10:33:19;102972.84;;;9.55;42.90
21109;BME280;10712;52.944;9.098;2023-01-28T10:35:45;102978.94;;;9.61;42.90
21109;BME280;10712;52.944;9.098;2023-01-28T10:38:16;102983.41;;;9.61;42.94
21109;BME280;10712;52.944;9.098;2023-01-28T10:40:44;102970.03;;;9.64;43.15
21109;BME280;10712;52.944;9.098;2023-01-28T10:43:22;102961.09;;;9.68;43.06
21109;BME280;10712;52.944;9.098;2023-01-28T10:48:43;102946.72;;;9.76;43.10
21109;BME280;10712;52.944;9.098;2023-01-28T10:51:10;102952.75;;;9.86;42.83
21109;BME280;10712;52.944;9.098;2023-01-28T10:53:43;102947.44;;;9.84;42.85
21109;BME280;10712;52.944;9.098;2023-01-28T10:56:24;102961.69;;;9.82;42.87
21109;BME280;10712;52.944;9.098;2023-01-28T10:59:00;102948.31;;;9.86;42.86
21109;BME280;10712;52.944;9.098;2023-01-28T11:01:49;102939.44;;;9.86;42.59
21109;BME280;10712;52.944;9.098;2023-01-28T11:04:25;102950.97;;;9.86;42.63
21109;BME280;10712;52.944;9.098;2023-01-28T11:09:29;102926.81;;;9.96;42.81
21109;BME280;10712;52.944;9.098;2023-01-28T11:11:57;102921.38;;;10.00;42.84
21109;BME280;10712;52.944;9.098;2023-01-28T11:14:26;102914.03;;;10.11;42.64
21109;BME280;10712;52.944;9.098;2023-01-28T11:16:55;102911.50;;;10.05;42.83
21109;BME280;10712;52.944;9.098;2023-01-28T11:19:34;102904.19;;;10.16;42.36
21109;BME280;10712;52.944;9.098;2023-01-28T11:22:01;102897.75;;;10.26;42.06
21109;BME280;10712;52.944;9.098;2023-01-28T11:24:31;102889.91;;;10.20;42.11
21109;BME280;10712;52.944;9.098;2023-01-28T11:27:12;102873.78;;;10.26;41.98
21109;BME280;10712;52.944;9.098;2023-01-28T11:29:40;102872.91;;;10.26;42.21
21109;BME280;10712;52.944;9.098;2023-01-28T11:32:29;102865.81;;;10.25;42.10
21109;BME280;10712;52.944;9.098;2023-01-28T11:34:58;102862.28;;;10.24;42.38
21109;BME280;10712;52.944;9.098;2023-01-28T11:37:28;102857.94;;;10.20;42.44
21109;BME280;10712;52.944;9.098;2023-01-28T11:40:16;102848.72;;;10.35;42.70
21109;BME280;10712;52.944;9.098;2023-01-28T11:42:46;102842.91;;;10.55;41.48
21109;BME280;10712;52.944;9.098;2023-01-28T11:45:21;102838.78;;;10.42;41.82
21109;BME280;10712;52.944;9.098;2023-01-28T11:48:08;102831.75;;;10.38;42.11
21109;BME280;10712;52.944;9.098;2023-01-28T11:50:58;102818.06;;;10.53;42.24
21109;BME280;10712;52.944;9.098;2023-01-28T11:53:56;102800.16;;;10.58;42.33
21109;BME280;10712;52.944;9.098;2023-01-28T12:02:41;102798.34;;;10.60;41.75
21109;BME280;10712;52.944;9.098;2023-01-28T12:05:33;102816.84;;;10.66;41.91
21109;BME280;10712;52.944;9.098;2023-01-28T12:08:11;102829.38;;;10.62;42.21
21109;BME280;10712;52.944;9.098;2023-01-28T12:11:03;102826.63;;;10.65;42.32
21109;BME280;10712;52.944;9.098;2023-01-28T12:21:59;102841.47;;;10.76;42.39
21109;BME280;10712;52.944;9.098;2023-01-28T12:28:07;102836.69;;;10.88;41.68
21109;BME280;10712;52.944;9.098;2023-01-28T12:31:35;102834.06;;;10.87;41.40
21109;BME280;10712;52.944;9.098;2023-01-28T12:36:42;102849.72;;;10.65;42.16
21109;BME280;10712;52.944;9.098;2023-01-28T12:42:52;102846.31;;;10.60;42.61
21109;BME280;10712;52.944;9.098;2023-01-28T12:45:32;102844.41;;;10.65;42.73
21109;BME280;10712;52.944;9.098;2023-01-28T12:48:19;102843.31;;;10.74;42.80
21109;BME280;10712;52.944;9.098;2023-01-28T12:56:18;102842.25;;;10.79;42.84
21109;BME280;10712;52.944;9.098;2023-01-28T12:58:53;102836.69;;;10.88;42.83
21109;BME280;10712;52.944;9.098;2023-01-28T13:01:29;102838.47;;;10.89;42.47
21109;BME280;10712;52.944;9.098;2023-01-28T13:04:09;102819.47;;;11.01;42.30
21109;BME280;10712;52.944;9.098;2023-01-28T13:06:48;102796.72;;;10.88;42.66
21109;BME280;10712;52.944;9.098;2023-01-28T13:09:22;102794.47;;;11.05;42.61
21109;BME280;10712;52.944;9.098;2023-01-28T13:11:53;102790.81;;;11.08;42.42
21109;BME280;10712;52.944;9.098;2023-01-28T13:14:28;102771.06;;;11.15;42.22
21109;BME280;10712;52.944;9.098;2023-01-28T13:16:56;102773.63;;;11.20;42.46
21109;BME280;10712;52.944;9.098;2023-01-28T13:19:35;102757.06;;;11.38;42.22
21109;BME280;10712;52.944;9.098;2023-01-28T13:22:12;102740.94;;;11.41;42.30
21109;BME280;10712;52.944;9.098;2023-01-28T13:24:38;102738.56;;;11.61;42.00
21109;BME280;10712;52.944;9.098;2023-01-28T13:27:19;102738.38;;;11.67;40.77
21109;BME280;10712;52.944;9.098;2023-01-28T13:29:47;102754.94;;;11.49;41.41
21109;BME280;10712;52.944;9.098;2023-01-28T13:32:39;102746.00;;;11.50;41.65
21109;BME280;10712;52.944;9.098;2023-01-28T13:35:28;102739.38;;;11.63;41.53
21109;BME280;10712;52.944;9.098;2023-01-28T13:37:55;102723.59;;;11.56;41.76
21109;BME280;10712;52.944;9.098;2023-01-28T13:40:28;102742.44;;;11.51;41.90
21109;BME280;10712;52.944;9.098;2023-01-28T13:43:00;102751.34;;;11.50;42.10
21109;BME280;10712;52.944;9.098;2023-01-28T13:45:27;102746.56;;;11.61;41.97
21109;BME280;10712;52.944;9.098;2023-01-28T13:48:17;102756.31;;;11.62;41.64
21109;BME280;10712;52.944;9.098;2023-01-28T13:50:51;102754.66;;;11.58;41.79
21109;BME280;10712;52.944;9.098;2023-01-28T13:53:40;102779.63;;;11.57;41.95
21109;BME280;10712;52.944;9.098;2023-01-28T13:56:22;102788.53;;;11.56;42.19
21109;BME280;10712;52.944;9.098;2023-01-28T13:59:40;102790.56;;;11.48;42.52
21109;BME280;10712;52.944;9.098;2023-01-28T14:02:31;102789.56;;;11.52;42.45
21109;BME280;10712;52.944;9.098;2023-01-28T14:05:48;102792.13;;;11.55;42.12
21109;BME280;10712;52.944;9.098;2023-01-28T14:17:46;102803.28;;;11.40;42.50
21109;BME280;10712;52.944;9.098;2023-01-28T14:20:29;102800.81;;;11.32;42.50
21109;BME280;10712;52.944;9.098;2023-01-28T14:23:16;102805.88;;;11.41;42.57
21109;BME280;10712;52.944;9.098;2023-01-28T14:28:30;102801.59;;;11.36;42.10
21109;BME280;10712;52.944;9.098;2023-01-28T14:31:26;102803.53;;;11.31;42.48
21109;BME280;10712;52.944;9.098;2023-01-28T14:34:02;102806.34;;;11.26;42.71
21109;BME280;10712;52.944;9.098;2023-01-28T14:36:29;102807.28;;;11.24;42.79
21109;BME280;10712;52.944;9.098;2023-01-28T14:38:55;102796.53;;;11.27;42.93